Terminal Aerodrome Forecast
Issued by NWS North Platte, NE

Home | Current Version | Previous Version | Text Only | Print | Product List | Glossary On
Versions: 1 2 3 4 5 6 7 8 9 10 11 12 13 14 15 16 17 18 19 20 21 22 23 24 25 26 27 28
944
FTUS43 KLBF 112320
TAFVTN
TAF
KVTN 112320Z 1200/1224 36013G22KT P6SM BKN110
     FM120300 02008KT P6SM OVC015
     FM120400 03007KT P6SM OVC008
     FM121600 04009KT P6SM OVC015
     FM121900 05007KT P6SM OVC030=

USA.gov is the U.S. government's official web portal to all federal, state and local government web resources and services.